sensor_id;sensor_type;location;lat;lon;timestamp;pressure;altitude;pressure_sealevel;temperature;humidity
26775;BME280;14362;51.902;7.626;2022-11-20T00:00:38;100707.97;;;-2.35;100.00
26775;BME280;14362;51.902;7.626;2022-11-20T00:04:39;100710.34;;;-2.27;100.00
26775;BME280;14362;51.902;7.626;2022-11-20T00:08:42;100701.97;;;-2.37;100.00
26775;BME280;14362;51.902;7.626;2022-11-20T00:12:44;100697.66;;;-2.33;100.00
26775;BME280;14362;51.902;7.626;2022-11-20T00:16:45;100695.44;;;-2.36;100.00
26775;BME280;14362;51.902;7.626;2022-11-20T00:20:47;100698.66;;;-2.51;100.00
26775;BME280;14362;51.902;7.626;2022-11-20T00:24:50;100706.00;;;-2.51;100.00
26775;BME280;14362;51.902;7.626;2022-11-20T00:28:52;100706.59;;;-2.49;100.00
26775;BME280;14362;51.902;7.626;2022-11-20T00:32:56;100707.19;;;-2.59;100.00
26775;BME280;14362;51.902;7.626;2022-11-20T00:36:58;100708.28;;;-2.71;100.00
26775;BME280;14362;51.902;7.626;2022-11-20T00:41:02;100720.03;;;-2.71;100.00
26775;BME280;14362;51.902;7.626;2022-11-20T00:45:05;100718.50;;;-2.67;100.00
26775;BME280;14362;51.902;7.626;2022-11-20T00:49:07;100715.03;;;-2.62;100.00
26775;BME280;14362;51.902;7.626;2022-11-20T00:53:08;100708.28;;;-2.71;100.00
26775;BME280;14362;51.902;7.626;2022-11-20T00:57:11;100713.03;;;-2.67;100.00
26775;BME280;14362;51.902;7.626;2022-11-20T01:01:15;100712.44;;;-2.69;100.00
26775;BME280;14362;51.902;7.626;2022-11-20T01:05:16;100707.47;;;-2.72;100.00
26775;BME280;14362;51.902;7.626;2022-11-20T01:09:18;100705.47;;;-2.88;100.00
26775;BME280;14362;51.902;7.626;2022-11-20T01:13:20;100714.94;;;-2.79;100.00
26775;BME280;14362;51.902;7.626;2022-11-20T01:17:41;100719.56;;;-2.79;100.00
26775;BME280;14362;51.902;7.626;2022-11-20T01:21:43;100714.72;;;-2.89;100.00
26775;BME280;14362;51.902;7.626;2022-11-20T01:25:45;100716.97;;;-2.97;100.00
26775;BME280;14362;51.902;7.626;2022-11-20T01:29:48;100714.25;;;-2.97;100.00
26775;BME280;14362;51.902;7.626;2022-11-20T01:33:51;100695.75;;;-2.95;100.00
26775;BME280;14362;51.902;7.626;2022-11-20T01:37:52;100685.78;;;-2.90;100.00
26775;BME280;14362;51.902;7.626;2022-11-20T01:41:55;100689.25;;;-3.05;100.00
26775;BME280;14362;51.902;7.626;2022-11-20T01:46:16;100685.78;;;-3.01;100.00
26775;BME280;14362;51.902;7.626;2022-11-20T01:50:22;100679.41;;;-3.06;100.00
26775;BME280;14362;51.902;7.626;2022-11-20T01:54:28;100669.78;;;-3.09;100.00
26775;BME280;14362;51.902;7.626;2022-11-20T01:58:34;100665.41;;;-3.10;100.00
26775;BME280;14362;51.902;7.626;2022-11-20T02:02:39;100652.63;;;-3.09;100.00
26775;BME280;14362;51.902;7.626;2022-11-20T02:06:44;100657.00;;;-3.08;100.00
26775;BME280;14362;51.902;7.626;2022-11-20T02:10:47;100652.16;;;-3.06;100.00
26775;BME280;14362;51.902;7.626;2022-11-20T02:14:48;100658.41;;;-3.17;100.00
26775;BME280;14362;51.902;7.626;2022-11-20T02:18:53;100663.28;;;-3.31;100.00
26775;BME280;14362;51.902;7.626;2022-11-20T02:22:58;100655.09;;;-3.19;100.00
26775;BME280;14362;51.902;7.626;2022-11-20T02:27:04;100640.91;;;-3.21;100.00
26775;BME280;14362;51.902;7.626;2022-11-20T02:31:05;100657.84;;;-3.31;100.00
26775;BME280;14362;51.902;7.626;2022-11-20T02:35:09;100646.22;;;-3.26;100.00
26775;BME280;14362;51.902;7.626;2022-11-20T02:39:11;100644.09;;;-3.36;100.00
26775;BME280;14362;51.902;7.626;2022-11-20T02:43:16;100646.81;;;-3.36;100.00
26775;BME280;14362;51.902;7.626;2022-11-20T02:47:18;100643.50;;;-3.49;100.00
26775;BME280;14362;51.902;7.626;2022-11-20T02:51:19;100649.53;;;-3.47;100.00
26775;BME280;14362;51.902;7.626;2022-11-20T02:55:20;100650.94;;;-3.56;100.00
26775;BME280;14362;51.902;7.626;2022-11-20T02:59:23;100645.50;;;-3.45;100.00
26775;BME280;14362;51.902;7.626;2022-11-20T03:03:25;100643.38;;;-3.43;100.00
26775;BME280;14362;51.902;7.626;2022-11-20T03:07:26;100633.06;;;-3.52;100.00
26775;BME280;14362;51.902;7.626;2022-11-20T03:11:28;100637.81;;;-3.59;100.00
26775;BME280;14362;51.902;7.626;2022-11-20T03:15:31;100638.88;;;-3.60;100.00
26775;BME280;14362;51.902;7.626;2022-11-20T03:19:33;100633.75;;;-3.68;100.00
26775;BME280;14362;51.902;7.626;2022-11-20T03:23:35;100620.28;;;-3.52;100.00
26775;BME280;14362;51.902;7.626;2022-11-20T03:27:37;100613.88;;;-3.69;100.00
26775;BME280;14362;51.902;7.626;2022-11-20T03:31:40;100618.47;;;-3.69;100.00
26775;BME280;14362;51.902;7.626;2022-11-20T03:35:42;100612.59;;;-3.55;100.00
26775;BME280;14362;51.902;7.626;2022-11-20T03:39:43;100618.34;;;-3.74;100.00
26775;BME280;14362;51.902;7.626;2022-11-20T03:43:47;100622.28;;;-3.70;100.00
26775;BME280;14362;51.902;7.626;2022-11-20T03:47:50;100605.44;;;-3.79;100.00
26775;BME280;14362;51.902;7.626;2022-11-20T03:51:52;100608.28;;;-3.85;100.00
26775;BME280;14362;51.902;7.626;2022-11-20T03:55:53;100605.56;;;-3.85;100.00
26775;BME280;14362;51.902;7.626;2022-11-20T03:59:54;100609.13;;;-3.73;100.00
26775;BME280;14362;51.902;7.626;2022-11-20T04:03:57;100602.38;;;-3.82;100.00
26775;BME280;14362;51.902;7.626;2022-11-20T04:07:59;100597.84;;;-3.88;100.00
26775;BME280;14362;51.902;7.626;2022-11-20T04:12:00;100593.47;;;-3.89;100.00
26775;BME280;14362;51.902;7.626;2022-11-20T04:16:02;100595.25;;;-3.95;100.00
26775;BME280;14362;51.902;7.626;2022-11-20T04:20:06;100588.50;;;-3.92;100.00
26775;BME280;14362;51.902;7.626;2022-11-20T04:24:07;100589.81;;;-3.95;100.00
26775;BME280;14362;51.902;7.626;2022-11-20T04:28:10;100596.88;;;-4.05;100.00
26775;BME280;14362;51.902;7.626;2022-11-20T04:32:11;100593.25;;;-3.99;100.00
26775;BME280;14362;51.902;7.626;2022-11-20T04:36:16;100597.88;;;-3.77;100.00
26775;BME280;14362;51.902;7.626;2022-11-20T04:40:18;100592.91;;;-3.68;100.00
26775;BME280;14362;51.902;7.626;2022-11-20T04:44:19;100597.66;;;-3.52;100.00
26775;BME280;14362;51.902;7.626;2022-11-20T04:48:21;100605.59;;;-3.51;100.00
26775;BME280;14362;51.902;7.626;2022-11-20T04:52:24;100600.03;;;-3.33;100.00
26775;BME280;14362;51.902;7.626;2022-11-20T04:56:25;100594.78;;;-3.23;100.00
26775;BME280;14362;51.902;7.626;2022-11-20T05:00:27;100593.00;;;-3.06;100.00
26775;BME280;14362;51.902;7.626;2022-11-20T05:04:28;100595.38;;;-3.09;100.00
26775;BME280;14362;51.902;7.626;2022-11-20T05:08:31;100599.75;;;-2.97;100.00
26775;BME280;14362;51.902;7.626;2022-11-20T05:12:33;100596.53;;;-2.94;100.00
26775;BME280;14362;51.902;7.626;2022-11-20T05:16:34;100596.16;;;-2.86;100.00
26775;BME280;14362;51.902;7.626;2022-11-20T05:20:36;100597.44;;;-2.77;100.00
26775;BME280;14362;51.902;7.626;2022-11-20T05:24:39;100603.81;;;-2.72;100.00
26775;BME280;14362;51.902;7.626;2022-11-20T05:28:40;100601.69;;;-2.70;100.00
26775;BME280;14362;51.902;7.626;2022-11-20T05:32:42;100594.19;;;-2.63;100.00
26775;BME280;14362;51.902;7.626;2022-11-20T05:36:43;100594.06;;;-2.56;100.00
26775;BME280;14362;51.902;7.626;2022-11-20T05:40:46;100586.22;;;-2.53;100.00
26775;BME280;14362;51.902;7.626;2022-11-20T05:44:47;100584.06;;;-2.51;100.00
26775;BME280;14362;51.902;7.626;2022-11-20T05:48:48;100577.97;;;-2.41;100.00
26775;BME280;14362;51.902;7.626;2022-11-20T05:52:50;100576.97;;;-2.35;100.00
26775;BME280;14362;51.902;7.626;2022-11-20T05:56:53;100581.13;;;-2.33;100.00
26775;BME280;14362;51.902;7.626;2022-11-20T06:00:54;100584.28;;;-2.24;100.00
26775;BME280;14362;51.902;7.626;2022-11-20T06:04:56;100582.97;;;-2.22;100.00
26775;BME280;14362;51.902;7.626;2022-11-20T06:08:57;100579.00;;;-2.14;100.00
26775;BME280;14362;51.902;7.626;2022-11-20T06:13:00;100579.94;;;-2.09;100.00
26775;BME280;14362;51.902;7.626;2022-11-20T06:17:02;100572.41;;;-2.02;100.00
26775;BME280;14362;51.902;7.626;2022-11-20T06:21:05;100569.78;;;-1.97;100.00
26775;BME280;14362;51.902;7.626;2022-11-20T06:25:07;100580.78;;;-1.92;100.00
26775;BME280;14362;51.902;7.626;2022-11-20T06:29:10;100582.19;;;-1.90;100.00
26775;BME280;14362;51.902;7.626;2022-11-20T06:33:12;100578.97;;;-1.87;100.00
26775;BME280;14362;51.902;7.626;2022-11-20T06:37:13;100577.41;;;-1.83;100.00
26775;BME280;14362;51.902;7.626;2022-11-20T06:41:17;100577.16;;;-1.81;100.00
26775;BME280;14362;51.902;7.626;2022-11-20T06:45:20;100590.91;;;-1.76;100.00
26775;BME280;14362;51.902;7.626;2022-11-20T06:49:21;100598.50;;;-1.78;100.00
26775;BME280;14362;51.902;7.626;2022-11-20T06:53:23;100595.28;;;-1.75;100.00
26775;BME280;14362;51.902;7.626;2022-11-20T06:57:25;100592.28;;;-1.74;100.00
26775;BME280;14362;51.902;7.626;2022-11-20T07:01:27;100589.81;;;-1.75;100.00
26775;BME280;14362;51.902;7.626;2022-11-20T07:05:29;100600.75;;;-1.75;100.00
26775;BME280;14362;51.902;7.626;2022-11-20T07:09:30;100599.41;;;-1.73;100.00
26775;BME280;14362;51.902;7.626;2022-11-20T07:13:32;100588.00;;;-1.70;100.00
26775;BME280;14362;51.902;7.626;2022-11-20T07:17:35;100587.72;;;-1.68;100.00
26775;BME280;14362;51.902;7.626;2022-11-20T07:21:36;100609.34;;;-1.67;100.00
26775;BME280;14362;51.902;7.626;2022-11-20T07:25:37;100608.19;;;-1.71;100.00
26775;BME280;14362;51.902;7.626;2022-11-20T07:29:39;100610.44;;;-1.68;100.00
26775;BME280;14362;51.902;7.626;2022-11-20T07:33:42;100619.44;;;-1.67;100.00
26775;BME280;14362;51.902;7.626;2022-11-20T07:37:43;100610.75;;;-1.64;100.00
26775;BME280;14362;51.902;7.626;2022-11-20T07:41:45;100611.34;;;-1.62;100.00
26775;BME280;14362;51.902;7.626;2022-11-20T07:45:47;100605.69;;;-1.56;100.00
26775;BME280;14362;51.902;7.626;2022-11-20T07:49:49;100598.41;;;-1.50;100.00
26775;BME280;14362;51.902;7.626;2022-11-20T07:53:51;100597.41;;;-1.44;100.00
26775;BME280;14362;51.902;7.626;2022-11-20T07:57:54;100589.97;;;-1.49;100.00
26775;BME280;14362;51.902;7.626;2022-11-20T08:01:56;100587.56;;;-1.45;100.00
26775;BME280;14362;51.902;7.626;2022-11-20T08:05:59;100581.19;;;-1.34;100.00
26775;BME280;14362;51.902;7.626;2022-11-20T08:10:01;100586.47;;;-1.28;100.00
26775;BME280;14362;51.902;7.626;2022-11-20T08:14:03;100591.50;;;-1.20;100.00
26775;BME280;14362;51.902;7.626;2022-11-20T08:18:12;100589.41;;;-1.13;100.00
26775;BME280;14362;51.902;7.626;2022-11-20T08:22:15;100598.50;;;-1.07;100.00
26775;BME280;14362;51.902;7.626;2022-11-20T08:26:17;100594.78;;;-1.02;100.00
26775;BME280;14362;51.902;7.626;2022-11-20T08:30:19;100590.38;;;-1.02;100.00
26775;BME280;14362;51.902;7.626;2022-11-20T08:34:20;100596.50;;;-0.96;100.00
26775;BME280;14362;51.902;7.626;2022-11-20T08:38:23;100593.59;;;-0.89;100.00
26775;BME280;14362;51.902;7.626;2022-11-20T08:42:24;100596.38;;;-0.84;100.00
26775;BME280;14362;51.902;7.626;2022-11-20T08:46:27;100590.97;;;-0.79;100.00
26775;BME280;14362;51.902;7.626;2022-11-20T08:50:30;100587.22;;;-0.73;100.00
26775;BME280;14362;51.902;7.626;2022-11-20T08:54:33;100585.88;;;-0.71;100.00
26775;BME280;14362;51.902;7.626;2022-11-20T08:58:35;100576.38;;;-0.63;100.00
26775;BME280;14362;51.902;7.626;2022-11-20T09:02:36;100582.31;;;-0.50;100.00
26775;BME280;14362;51.902;7.626;2022-11-20T09:06:38;100578.63;;;-0.39;100.00
26775;BME280;14362;51.902;7.626;2022-11-20T09:10:40;100574.06;;;-0.28;100.00
26775;BME280;14362;51.902;7.626;2022-11-20T09:14:42;100585.91;;;-0.23;100.00
26775;BME280;14362;51.902;7.626;2022-11-20T09:18:43;100579.13;;;-0.15;100.00
26775;BME280;14362;51.902;7.626;2022-11-20T09:22:45;100563.69;;;0.00;100.00
26775;BME280;14362;51.902;7.626;2022-11-20T09:26:47;100574.09;;;0.03;100.00
26775;BME280;14362;51.902;7.626;2022-11-20T09:30:49;100565.97;;;0.13;100.00
26775;BME280;14362;51.902;7.626;2022-11-20T09:34:50;100559.72;;;0.17;100.00
26775;BME280;14362;51.902;7.626;2022-11-20T09:38:52;100563.59;;;0.21;100.00
26775;BME280;14362;51.902;7.626;2022-11-20T09:42:57;100559.81;;;0.27;100.00
26775;BME280;14362;51.902;7.626;2022-11-20T09:47:03;100557.66;;;0.34;100.00
26775;BME280;14362;51.902;7.626;2022-11-20T09:51:16;100555.78;;;0.40;100.00
26775;BME280;14362;51.902;7.626;2022-11-20T09:55:22;100546.50;;;0.46;100.00
26775;BME280;14362;51.902;7.626;2022-11-20T09:59:35;100538.91;;;0.58;100.00
26775;BME280;14362;51.902;7.626;2022-11-20T10:03:41;100547.16;;;0.63;100.00
26775;BME280;14362;51.902;7.626;2022-11-20T10:07:49;100536.28;;;0.73;100.00
26775;BME280;14362;51.902;7.626;2022-11-20T10:12:07;100527.28;;;0.82;100.00
26775;BME280;14362;51.902;7.626;2022-11-20T10:16:15;100528.44;;;0.96;100.00
26775;BME280;14362;51.902;7.626;2022-11-20T10:20:27;100530.66;;;1.04;100.00
26775;BME280;14362;51.902;7.626;2022-11-20T10:24:55;100518.91;;;1.13;100.00
26775;BME280;14362;51.902;7.626;2022-11-20T10:29:07;100509.91;;;1.18;100.00
26775;BME280;14362;51.902;7.626;2022-11-20T10:33:16;100514.59;;;1.27;100.00
26775;BME280;14362;51.902;7.626;2022-11-20T10:37:22;100519.00;;;1.33;100.00
26775;BME280;14362;51.902;7.626;2022-11-20T10:41:28;100513.25;;;1.45;100.00
26775;BME280;14362;51.902;7.626;2022-11-20T10:45:40;100514.41;;;1.59;100.00
26775;BME280;14362;51.902;7.626;2022-11-20T10:49:49;100513.63;;;1.68;100.00
26775;BME280;14362;51.902;7.626;2022-11-20T10:53:57;100504.56;;;1.83;100.00
26775;BME280;14362;51.902;7.626;2022-11-20T10:58:03;100499.91;;;1.98;100.00
26775;BME280;14362;51.902;7.626;2022-11-20T11:02:18;100485.06;;;2.09;100.00
26775;BME280;14362;51.902;7.626;2022-11-20T11:06:25;100486.44;;;2.26;100.00
26775;BME280;14362;51.902;7.626;2022-11-20T11:10:35;100477.91;;;2.33;100.00
26775;BME280;14362;51.902;7.626;2022-11-20T11:14:44;100469.63;;;2.48;100.00
26775;BME280;14362;51.902;7.626;2022-11-20T11:18:45;100464.09;;;2.63;100.00
26775;BME280;14362;51.902;7.626;2022-11-20T11:22:50;100466.25;;;2.71;100.00
26775;BME280;14362;51.902;7.626;2022-11-20T11:26:55;100468.94;;;2.91;100.00
26775;BME280;14362;51.902;7.626;2022-11-20T11:30:57;100455.69;;;3.02;100.00
26775;BME280;14362;51.902;7.626;2022-11-20T11:34:59;100449.31;;;3.12;100.00
26775;BME280;14362;51.902;7.626;2022-11-20T11:39:05;100442.31;;;3.34;100.00
26775;BME280;14362;51.902;7.626;2022-11-20T11:43:18;100433.94;;;3.54;100.00
26775;BME280;14362;51.902;7.626;2022-11-20T11:47:45;100444.91;;;3.59;100.00
26775;BME280;14362;51.902;7.626;2022-11-20T11:51:59;100443.41;;;3.77;100.00
26775;BME280;14362;51.902;7.626;2022-11-20T11:56:07;100428.16;;;3.89;100.00
26775;BME280;14362;51.902;7.626;2022-11-20T12:00:10;100434.75;;;3.93;100.00
26775;BME280;14362;51.902;7.626;2022-11-20T12:04:17;100427.16;;;3.75;100.00
26775;BME280;14362;51.902;7.626;2022-11-20T12:08:24;100429.63;;;3.77;100.00
26775;BME280;14362;51.902;7.626;2022-11-20T12:12:32;100434.53;;;3.85;100.00
26775;BME280;14362;51.902;7.626;2022-11-20T12:16:37;100416.38;;;3.79;100.00
26775;BME280;14362;51.902;7.626;2022-11-20T12:20:44;100413.28;;;3.85;100.00
26775;BME280;14362;51.902;7.626;2022-11-20T12:24:53;100403.69;;;3.83;99.34
26775;BME280;14362;51.902;7.626;2022-11-20T12:29:06;100392.38;;;3.79;99.60
26775;BME280;14362;51.902;7.626;2022-11-20T12:33:20;100381.34;;;3.79;100.00
26775;BME280;14362;51.902;7.626;2022-11-20T12:37:34;100390.22;;;3.76;100.00
26775;BME280;14362;51.902;7.626;2022-11-20T12:41:46;100387.13;;;3.83;100.00
26775;BME280;14362;51.902;7.626;2022-11-20T12:46:18;100385.16;;;3.88;100.00
26775;BME280;14362;51.902;7.626;2022-11-20T12:50:32;100383.50;;;3.87;100.00
26775;BME280;14362;51.902;7.626;2022-11-20T12:54:54;100379.03;;;3.96;100.00
26775;BME280;14362;51.902;7.626;2022-11-20T12:59:14;100367.19;;;3.91;100.00
26775;BME280;14362;51.902;7.626;2022-11-20T13:03:34;100364.81;;;3.79;100.00
26775;BME280;14362;51.902;7.626;2022-11-20T13:07:38;100364.69;;;3.66;100.00
26775;BME280;14362;51.902;7.626;2022-11-20T13:11:43;100356.41;;;3.66;100.00
26775;BME280;14362;51.902;7.626;2022-11-20T13:15:51;100343.94;;;3.73;100.00
26775;BME280;14362;51.902;7.626;2022-11-20T13:19:57;100333.78;;;3.97;100.00
26775;BME280;14362;51.902;7.626;2022-11-20T13:24:04;100329.41;;;4.19;100.00
26775;BME280;14362;51.902;7.626;2022-11-20T13:28:26;100306.25;;;4.20;100.00
26775;BME280;14362;51.902;7.626;2022-11-20T13:32:30;100302.28;;;4.03;100.00
26775;BME280;14362;51.902;7.626;2022-11-20T13:36:32;100294.22;;;3.83;100.00
26775;BME280;14362;51.902;7.626;2022-11-20T13:40:36;100293.75;;;3.76;100.00
26775;BME280;14362;51.902;7.626;2022-11-20T13:44:42;100297.47;;;3.62;100.00
26775;BME280;14362;51.902;7.626;2022-11-20T13:48:45;100285.34;;;3.63;100.00
26775;BME280;14362;51.902;7.626;2022-11-20T13:52:55;100274.97;;;3.50;100.00
26775;BME280;14362;51.902;7.626;2022-11-20T13:57:07;100268.84;;;3.58;100.00
26775;BME280;14362;51.902;7.626;2022-11-20T14:01:16;100262.56;;;3.52;100.00
26775;BME280;14362;51.902;7.626;2022-11-20T14:05:22;100258.44;;;3.50;100.00
26775;BME280;14362;51.902;7.626;2022-11-20T14:09:28;100252.94;;;3.50;100.00
26775;BME280;14362;51.902;7.626;2022-11-20T14:13:29;100239.16;;;3.50;100.00
26775;BME280;14362;51.902;7.626;2022-11-20T14:17:32;100230.72;;;3.41;100.00
26775;BME280;14362;51.902;7.626;2022-11-20T14:21:35;100227.91;;;3.46;100.00
26775;BME280;14362;51.902;7.626;2022-11-20T14:25:37;100227.72;;;3.38;100.00
26775;BME280;14362;51.902;7.626;2022-11-20T14:29:44;100225.19;;;3.41;100.00
26775;BME280;14362;51.902;7.626;2022-11-20T14:33:47;100217.53;;;3.38;100.00
26775;BME280;14362;51.902;7.626;2022-11-20T14:37:50;100208.66;;;3.41;100.00
26775;BME280;14362;51.902;7.626;2022-11-20T14:41:53;100209.53;;;3.37;100.00
26775;BME280;14362;51.902;7.626;2022-11-20T14:45:57;100223.63;;;3.35;100.00
26775;BME280;14362;51.902;7.626;2022-11-20T14:50:00;100216.16;;;3.36;100.00
26775;BME280;14362;51.902;7.626;2022-11-20T14:54:15;100204.34;;;3.35;100.00
26775;BME280;14362;51.902;7.626;2022-11-20T14:58:22;100197.22;;;3.29;100.00
26775;BME280;14362;51.902;7.626;2022-11-20T15:02:23;100201.63;;;3.30;100.00
26775;BME280;14362;51.902;7.626;2022-11-20T15:06:26;100191.16;;;3.32;100.00
26775;BME280;14362;51.902;7.626;2022-11-20T15:10:29;100171.34;;;3.30;100.00
26775;BME280;14362;51.902;7.626;2022-11-20T15:14:30;100170.00;;;3.28;100.00
26775;BME280;14362;51.902;7.626;2022-11-20T15:18:36;100153.75;;;3.26;100.00
26775;BME280;14362;51.902;7.626;2022-11-20T15:22:38;100152.38;;;3.29;100.00
26775;BME280;14362;51.902;7.626;2022-11-20T15:26:41;100143.25;;;3.28;100.00
26775;BME280;14362;51.902;7.626;2022-11-20T15:30:43;100137.22;;;3.26;100.00
26775;BME280;14362;51.902;7.626;2022-11-20T15:34:44;100137.56;;;3.20;100.00
26775;BME280;14362;51.902;7.626;2022-11-20T15:38:46;100132.06;;;3.20;100.00
26775;BME280;14362;51.902;7.626;2022-11-20T15:42:49;100120.50;;;3.18;100.00
26775;BME280;14362;51.902;7.626;2022-11-20T15:47:07;100123.00;;;3.19;100.00
26775;BME280;14362;51.902;7.626;2022-11-20T15:51:18;100113.94;;;3.14;100.00
26775;BME280;14362;51.902;7.626;2022-11-20T15:55:22;100094.97;;;3.12;100.00
26775;BME280;14362;51.902;7.626;2022-11-20T15:59:25;100101.06;;;3.09;100.00
26775;BME280;14362;51.902;7.626;2022-11-20T16:03:26;100092.25;;;3.07;100.00
26775;BME280;14362;51.902;7.626;2022-11-20T16:07:28;100095.03;;;3.07;100.00
26775;BME280;14362;51.902;7.626;2022-11-20T16:11:29;100080.72;;;3.05;100.00
26775;BME280;14362;51.902;7.626;2022-11-20T16:15:32;100079.59;;;3.06;100.00
26775;BME280;14362;51.902;7.626;2022-11-20T16:19:49;100080.50;;;3.02;100.00
26775;BME280;14362;51.902;7.626;2022-11-20T16:23:50;100066.16;;;3.05;100.00
26775;BME280;14362;51.902;7.626;2022-11-20T16:27:51;100065.31;;;3.04;100.00
26775;BME280;14362;51.902;7.626;2022-11-20T16:31:54;100075.78;;;3.02;100.00
26775;BME280;14362;51.902;7.626;2022-11-20T16:35:57;100065.31;;;3.04;100.00
26775;BME280;14362;51.902;7.626;2022-11-20T16:39:58;100053.78;;;3.02;100.00
26775;BME280;14362;51.902;7.626;2022-11-20T16:44:02;100050.25;;;2.97;100.00
26775;BME280;14362;51.902;7.626;2022-11-20T16:48:11;100045.63;;;2.93;100.00
26775;BME280;14362;51.902;7.626;2022-11-20T16:52:13;100031.91;;;2.88;100.00
26775;BME280;14362;51.902;7.626;2022-11-20T16:56:19;100012.06;;;2.91;100.00
26775;BME280;14362;51.902;7.626;2022-11-20T17:00:21;100006.50;;;2.72;100.00
26775;BME280;14362;51.902;7.626;2022-11-20T17:04:24;100009.25;;;2.72;100.00
26775;BME280;14362;51.902;7.626;2022-11-20T17:08:27;99993.06;;;2.66;100.00
26775;BME280;14362;51.902;7.626;2022-11-20T17:12:29;99996.63;;;2.71;100.00
26775;BME280;14362;51.902;7.626;2022-11-20T17:16:31;99987.34;;;2.62;100.00
26775;BME280;14362;51.902;7.626;2022-11-20T17:20:33;99997.59;;;2.57;100.00
26775;BME280;14362;51.902;7.626;2022-11-20T17:24:35;99983.84;;;2.57;100.00
26775;BME280;14362;51.902;7.626;2022-11-20T17:28:37;99981.97;;;2.52;100.00
26775;BME280;14362;51.902;7.626;2022-11-20T17:32:38;99992.44;;;2.50;100.00
26775;BME280;14362;51.902;7.626;2022-11-20T17:36:46;99991.91;;;2.48;100.00
26775;BME280;14362;51.902;7.626;2022-11-20T17:40:47;99974.88;;;2.46;100.00
26775;BME280;14362;51.902;7.626;2022-11-20T17:44:48;99988.06;;;2.44;100.00
26775;BME280;14362;51.902;7.626;2022-11-20T17:48:50;99971.63;;;2.39;100.00
26775;BME280;14362;51.902;7.626;2022-11-20T17:52:53;99951.25;;;2.40;100.00
26775;BME280;14362;51.902;7.626;2022-11-20T17:56:54;99950.47;;;2.40;100.00
26775;BME280;14362;51.902;7.626;2022-11-20T18:01:14;99949.16;;;2.32;100.00
26775;BME280;14362;51.902;7.626;2022-11-20T18:05:16;99933.25;;;2.29;100.00
26775;BME280;14362;51.902;7.626;2022-11-20T18:09:19;99926.38;;;2.27;100.00
26775;BME280;14362;51.902;7.626;2022-11-20T18:13:20;99920.63;;;2.23;100.00
26775;BME280;14362;51.902;7.626;2022-11-20T18:17:42;99906.09;;;2.23;100.00
26775;BME280;14362;51.902;7.626;2022-11-20T18:21:43;99902.22;;;2.24;100.00
26775;BME280;14362;51.902;7.626;2022-11-20T18:25:46;99905.44;;;2.31;100.00
26775;BME280;14362;51.902;7.626;2022-11-20T18:29:47;99907.63;;;2.34;100.00
26775;BME280;14362;51.902;7.626;2022-11-20T18:33:50;99900.28;;;2.24;100.00
26775;BME280;14362;51.902;7.626;2022-11-20T18:37:54;99891.81;;;2.21;100.00
26775;BME280;14362;51.902;7.626;2022-11-20T18:41:56;99893.44;;;2.22;100.00
26775;BME280;14362;51.902;7.626;2022-11-20T18:46:15;99881.88;;;2.25;100.00
26775;BME280;14362;51.902;7.626;2022-11-20T18:50:18;99867.97;;;2.16;100.00
26775;BME280;14362;51.902;7.626;2022-11-20T18:54:20;99864.28;;;2.26;100.00
26775;BME280;14362;51.902;7.626;2022-11-20T18:58:22;99851.56;;;2.30;100.00
26775;BME280;14362;51.902;7.626;2022-11-20T19:02:24;99848.09;;;2.19;100.00
26775;BME280;14362;51.902;7.626;2022-11-20T19:06:27;99845.13;;;2.16;100.00
26775;BME280;14362;51.902;7.626;2022-11-20T19:10:28;99826.38;;;2.23;100.00
26775;BME280;14362;51.902;7.626;2022-11-20T19:14:31;99836.13;;;2.10;100.00
26775;BME280;14362;51.902;7.626;2022-11-20T19:18:33;99820.16;;;2.12;100.00
26775;BME280;14362;51.902;7.626;2022-11-20T19:22:34;99814.38;;;2.14;100.00
26775;BME280;14362;51.902;7.626;2022-11-20T19:26:36;99807.59;;;2.06;100.00
26775;BME280;14362;51.902;7.626;2022-11-20T19:30:39;99808.63;;;2.10;100.00
26775;BME280;14362;51.902;7.626;2022-11-20T19:34:41;99793.25;;;2.09;100.00
26775;BME280;14362;51.902;7.626;2022-11-20T19:38:45;99788.34;;;2.06;100.00
26775;BME280;14362;51.902;7.626;2022-11-20T19:42:47;99778.75;;;2.04;100.00
26775;BME280;14362;51.902;7.626;2022-11-20T19:46:50;99783.97;;;2.05;100.00
26775;BME280;14362;51.902;7.626;2022-11-20T19:50:51;99770.78;;;2.02;100.00
26775;BME280;14362;51.902;7.626;2022-11-20T19:54:52;99761.16;;;2.05;100.00
26775;BME280;14362;51.902;7.626;2022-11-20T19:58:55;99753.56;;;1.97;100.00
26775;BME280;14362;51.902;7.626;2022-11-20T20:02:58;99746.31;;;2.06;100.00
26775;BME280;14362;51.902;7.626;2022-11-20T20:06:59;99742.88;;;1.96;100.00
26775;BME280;14362;51.902;7.626;2022-11-20T20:11:09;99725.44;;;2.05;100.00
26775;BME280;14362;51.902;7.626;2022-11-20T20:15:10;99721.16;;;1.94;100.00
26775;BME280;14362;51.902;7.626;2022-11-20T20:19:14;99718.41;;;1.94;100.00
26775;BME280;14362;51.902;7.626;2022-11-20T20:23:15;99705.56;;;1.90;100.00
26775;BME280;14362;51.902;7.626;2022-11-20T20:27:17;99706.09;;;1.92;100.00
26775;BME280;14362;51.902;7.626;2022-11-20T20:31:20;99695.69;;;1.89;100.00
26775;BME280;14362;51.902;7.626;2022-11-20T20:35:23;99697.28;;;1.95;100.00
26775;BME280;14362;51.902;7.626;2022-11-20T20:39:25;99702.75;;;1.95;100.00
26775;BME280;14362;51.902;7.626;2022-11-20T20:43:28;99697.81;;;1.97;100.00
26775;BME280;14362;51.902;7.626;2022-11-20T20:47:31;99700.28;;;1.93;100.00
26775;BME280;14362;51.902;7.626;2022-11-20T20:51:34;99694.16;;;2.01;100.00
26775;BME280;14362;51.902;7.626;2022-11-20T20:55:36;99690.41;;;1.92;100.00
26775;BME280;14362;51.902;7.626;2022-11-20T20:59:37;99680.31;;;1.88;100.00
26775;BME280;14362;51.902;7.626;2022-11-20T21:03:39;99684.69;;;1.89;100.00
26775;BME280;14362;51.902;7.626;2022-11-20T21:07:42;99682.25;;;1.87;100.00
26775;BME280;14362;51.902;7.626;2022-11-20T21:11:57;99687.50;;;1.84;100.00